createdAt,value
2022-07-29T00:01:55.410Z,5.83
2022-07-29T00:04:29.015Z,6.70
2022-07-29T00:06:58.492Z,6.07
2022-07-29T00:09:29.070Z,6.20
2022-07-29T00:12:02.398Z,5.90
2022-07-29T00:14:32.578Z,7.23
2022-07-29T00:17:01.682Z,6.03
2022-07-29T00:19:30.751Z,6.00
2022-07-29T00:22:03.490Z,6.37
2022-07-29T00:24:37.019Z,6.37
2022-07-29T00:27:06.392Z,7.37
2022-07-29T00:29:38.624Z,6.07
2022-07-29T00:32:11.704Z,7.03
2022-07-29T00:34:57.686Z,6.57
2022-07-29T00:37:27.346Z,6.90
2022-07-29T00:40:01.433Z,6.47
2022-07-29T00:42:33.043Z,5.70
2022-07-29T00:45:06.039Z,6.50
2022-07-29T00:47:35.241Z,6.90
2022-07-29T00:50:09.447Z,6.33
2022-07-29T00:52:42.390Z,6.40
2022-07-29T00:55:15.810Z,5.90
2022-07-29T00:57:46.538Z,6.70
2022-07-29T01:00:19.703Z,6.37
2022-07-29T01:02:50.724Z,6.37
2022-07-29T01:05:21.779Z,6.73
2022-07-29T01:07:54.988Z,6.80
2022-07-29T01:10:29.414Z,7.00
2022-07-29T01:13:03.163Z,6.43
2022-07-29T01:15:49.233Z,6.20
2022-07-29T01:18:28.088Z,6.00
2022-07-29T01:21:57.606Z,6.63
2022-07-29T01:24:43.416Z,6.03
2022-07-29T01:27:37.355Z,6.53
2022-07-29T01:30:10.198Z,6.60
2022-07-29T01:32:43.333Z,7.00
2022-07-29T01:35:21.600Z,6.33
2022-07-29T01:38:00.022Z,6.20
2022-07-29T01:40:35.759Z,6.50
2022-07-29T01:43:12.759Z,6.67
2022-07-29T01:45:51.145Z,6.30
2022-07-29T01:48:31.934Z,6.33
2022-07-29T01:51:08.875Z,7.50
2022-07-29T01:53:46.565Z,6.37
2022-07-29T01:56:17.714Z,6.60
2022-07-29T01:58:48.064Z,6.57
2022-07-29T02:01:21.884Z,5.73
2022-07-29T02:03:51.854Z,6.63
2022-07-29T02:06:25.143Z,6.37
2022-07-29T02:08:56.548Z,6.50
2022-07-29T02:11:25.865Z,6.07
2022-07-29T02:13:59.039Z,6.40
2022-07-29T02:16:33.479Z,7.00
2022-07-29T02:19:05.769Z,6.10
2022-07-29T02:21:38.084Z,6.57
2022-07-29T02:24:08.694Z,6.33
2022-07-29T02:26:39.329Z,6.00
2022-07-29T02:29:10.851Z,6.03
2022-07-29T02:31:44.591Z,6.80
2022-07-29T02:34:15.437Z,7.27
2022-07-29T02:36:51.462Z,6.60
2022-07-29T02:39:21.580Z,6.77
2022-07-29T02:41:55.481Z,7.00
2022-07-29T02:44:31.364Z,7.47
2022-07-29T02:47:14.252Z,6.60
2022-07-29T02:49:52.422Z,7.43
2022-07-29T02:52:27.304Z,6.30
2022-07-29T02:55:00.905Z,6.20
2022-07-29T02:57:35.883Z,6.20
2022-07-29T03:00:26.403Z,6.50
2022-07-29T03:03:00.864Z,7.03
2022-07-29T03:05:32.371Z,6.10
2022-07-29T03:08:07.817Z,7.43
2022-07-29T03:10:40.295Z,7.30
2022-07-29T03:13:13.489Z,7.40
2022-07-29T03:15:47.747Z,6.83
2022-07-29T03:18:18.859Z,6.63
2022-07-29T03:20:48.661Z,7.17
2022-07-29T03:23:23.693Z,7.73
2022-07-29T03:25:53.292Z,6.90
2022-07-29T03:28:24.814Z,7.27
2022-07-29T03:31:00.696Z,6.70
2022-07-29T03:33:33.327Z,7.00
2022-07-29T03:36:03.697Z,5.93
2022-07-29T03:38:37.334Z,6.77
2022-07-29T03:41:12.430Z,6.50
2022-07-29T03:43:49.879Z,8.60
2022-07-29T03:46:20.511Z,7.37
2022-07-29T03:48:57.620Z,7.67
2022-07-29T03:51:33.695Z,6.70
2022-07-29T03:54:09.842Z,6.87
2022-07-29T03:56:43.980Z,8.30
2022-07-29T03:59:13.986Z,7.00
2022-07-29T04:01:45.142Z,7.80
2022-07-29T04:04:16.867Z,7.97
2022-07-29T04:06:48.937Z,6.57
2022-07-29T04:09:19.049Z,6.80
2022-07-29T04:12:01.930Z,7.53
2022-07-29T04:14:33.774Z,7.03
2022-07-29T04:17:04.314Z,7.37
2022-07-29T04:19:35.356Z,7.60
2022-07-29T04:22:05.199Z,8.70
2022-07-29T04:24:35.143Z,9.10
2022-07-29T04:27:04.529Z,8.87
2022-07-29T04:29:33.990Z,8.90
2022-07-29T04:32:03.407Z,8.30
2022-07-29T04:34:34.575Z,7.60
2022-07-29T04:37:03.782Z,8.03
2022-07-29T04:39:33.924Z,7.33
2022-07-29T04:42:03.052Z,7.30
2022-07-29T04:44:32.610Z,8.30
2022-07-29T04:47:09.907Z,7.30
2022-07-29T04:49:41.934Z,7.23
2022-07-29T04:52:11.251Z,8.67
2022-07-29T04:54:40.368Z,8.20
2022-07-29T04:57:09.773Z,8.63
2022-07-29T04:59:39.047Z,8.73
2022-07-29T05:02:08.115Z,8.03
2022-07-29T05:04:38.181Z,8.53
2022-07-29T05:07:09.297Z,7.57
2022-07-29T05:09:38.561Z,7.93
2022-07-29T05:12:09.301Z,8.30
2022-07-29T05:14:38.785Z,8.60
2022-07-29T05:17:08.042Z,9.93
2022-07-29T05:19:39.432Z,8.90
2022-07-29T05:22:10.746Z,9.30
2022-07-29T05:24:39.681Z,8.40
2022-07-29T05:27:08.862Z,9.80
2022-07-29T05:29:43.328Z,9.40
2022-07-29T05:32:14.865Z,9.93
2022-07-29T05:34:50.353Z,8.90
2022-07-29T05:37:22.871Z,9.10
2022-07-29T05:39:56.505Z,9.30
2022-07-29T05:42:27.038Z,9.00
2022-07-29T05:44:58.687Z,8.80
2022-07-29T05:47:28.074Z,9.20
2022-07-29T05:49:57.728Z,9.33
2022-07-29T05:52:28.613Z,10.03
2022-07-29T05:54:58.907Z,9.67
2022-07-29T05:57:28.062Z,9.77
2022-07-29T05:59:57.545Z,8.50
2022-07-29T06:02:26.655Z,10.30
2022-07-29T06:04:55.610Z,9.63
2022-07-29T06:07:25.010Z,9.00
2022-07-29T06:09:55.506Z,8.90
2022-07-29T06:12:25.048Z,9.53
2022-07-29T06:14:57.843Z,8.87
2022-07-29T06:17:27.660Z,8.10
2022-07-29T06:19:56.888Z,9.00
2022-07-29T06:22:26.187Z,9.07
2022-07-29T06:24:59.562Z,9.73
2022-07-29T06:27:28.829Z,8.00
2022-07-29T06:29:59.041Z,8.50
2022-07-29T06:32:32.418Z,9.23
2022-07-29T06:35:24.490Z,8.67
2022-07-29T06:37:50.921Z,9.53
2022-07-29T06:40:42.674Z,8.80
2022-07-29T06:43:12.292Z,8.50
2022-07-29T06:45:42.601Z,10.30
2022-07-29T06:48:12.474Z,9.30
2022-07-29T06:50:42.035Z,7.60
2022-07-29T06:53:11.495Z,9.40
2022-07-29T06:55:42.294Z,9.00
2022-07-29T06:58:12.082Z,8.60
2022-07-29T07:00:41.611Z,9.00
2022-07-29T07:03:11.308Z,8.60
2022-07-29T07:05:40.609Z,8.57
2022-07-29T07:08:10.028Z,8.47
2022-07-29T07:10:39.469Z,8.07
2022-07-29T07:13:10.958Z,8.93
2022-07-29T07:15:40.641Z,9.70
2022-07-29T07:18:10.268Z,8.37
2022-07-29T07:20:39.814Z,8.30
2022-07-29T07:23:08.910Z,8.27
2022-07-29T07:25:37.978Z,8.50
2022-07-29T07:28:09.595Z,8.50
2022-07-29T07:30:39.064Z,8.90
2022-07-29T07:33:08.223Z,9.77
2022-07-29T07:35:38.250Z,8.40
2022-07-29T07:38:09.024Z,8.67
2022-07-29T07:40:38.262Z,8.10
2022-07-29T07:43:07.692Z,8.87
2022-07-29T07:45:38.876Z,7.47
2022-07-29T07:48:11.314Z,7.90
2022-07-29T07:50:40.591Z,8.03
2022-07-29T07:53:11.142Z,7.87
2022-07-29T07:58:33.074Z,7.53
2022-07-29T08:01:07.344Z,7.80
2022-07-29T08:03:40.649Z,7.70
2022-07-29T08:06:10.331Z,8.03
2022-07-29T08:08:42.963Z,7.70
2022-07-29T08:11:13.009Z,7.43
2022-07-29T08:13:42.488Z,7.20
2022-07-29T08:16:16.683Z,7.37
2022-07-29T08:18:47.808Z,6.73
2022-07-29T08:21:18.253Z,7.30
2022-07-29T08:23:58.590Z,7.10
2022-07-29T08:26:30.218Z,8.10
2022-07-29T08:29:00.479Z,6.97
2022-07-29T08:31:31.613Z,6.60
2022-07-29T08:34:01.649Z,8.40
2022-07-29T08:36:30.897Z,7.70
2022-07-29T08:39:00.877Z,7.67
2022-07-29T08:41:31.034Z,7.53
2022-07-29T08:43:59.908Z,7.10
2022-07-29T08:46:30.230Z,6.87
2022-07-29T08:49:00.384Z,7.33
2022-07-29T08:51:30.153Z,8.47
2022-07-29T08:54:00.129Z,6.93
2022-07-29T08:56:29.581Z,6.93
2022-07-29T08:59:01.070Z,7.00
2022-07-29T09:01:45.840Z,7.30
2022-07-29T09:04:37.792Z,6.37
2022-07-29T09:07:43.171Z,6.77
2022-07-29T09:10:53.358Z,6.53
2022-07-29T09:13:22.852Z,7.60
2022-07-29T09:15:54.903Z,7.53
2022-07-29T09:18:42.922Z,7.23
2022-07-29T09:21:31.490Z,6.80
2022-07-29T09:24:08.069Z,7.60
2022-07-29T09:26:42.046Z,6.87
2022-07-29T09:29:15.108Z,7.07
2022-07-29T09:31:49.189Z,6.73
2022-07-29T09:34:31.000Z,6.60
2022-07-29T09:37:12.701Z,6.70
2022-07-29T09:39:47.283Z,7.30
2022-07-29T09:42:30.561Z,7.40
2022-07-29T09:44:59.831Z,6.73
2022-07-29T09:47:48.011Z,6.67
2022-07-29T09:50:20.649Z,7.07
2022-07-29T09:52:52.810Z,6.37
2022-07-29T09:55:22.490Z,6.77
2022-07-29T09:57:51.664Z,7.00
2022-07-29T10:00:24.195Z,7.40
2022-07-29T10:02:53.905Z,6.77
2022-07-29T10:05:26.905Z,7.70
2022-07-29T10:08:06.309Z,6.60
2022-07-29T10:10:38.905Z,7.67
2022-07-29T10:13:15.686Z,7.50
2022-07-29T10:15:47.572Z,7.87
2022-07-29T10:18:26.384Z,5.63
2022-07-29T10:20:59.674Z,6.80
2022-07-29T10:23:29.803Z,6.00
2022-07-29T10:26:16.685Z,7.77
2022-07-29T10:28:46.254Z,5.87
2022-07-29T10:31:26.073Z,5.60
2022-07-29T10:34:08.168Z,5.40
2022-07-29T10:36:56.286Z,5.90
2022-07-29T10:39:44.478Z,5.60
2022-07-29T10:42:33.408Z,5.77
2022-07-29T10:45:06.800Z,5.90
2022-07-29T10:47:36.437Z,6.32
2022-07-29T10:50:17.138Z,5.90
2022-07-29T10:53:09.051Z,6.40
2022-07-29T10:55:59.299Z,6.33
2022-07-29T10:58:29.517Z,6.93
2022-07-29T11:00:59.494Z,5.87
2022-07-29T11:03:50.358Z,5.73
2022-07-29T11:06:26.740Z,5.73
2022-07-29T11:09:25.836Z,5.93
2022-07-29T11:12:52.282Z,6.10
2022-07-29T11:15:25.007Z,6.20
2022-07-29T11:18:15.206Z,6.47
2022-07-29T11:20:50.154Z,5.90
2022-07-29T11:23:27.598Z,6.20
2022-07-29T11:26:24.771Z,6.37
2022-07-29T11:29:05.766Z,6.80
2022-07-29T11:34:30.379Z,6.20
2022-07-29T11:37:27.694Z,6.57
2022-07-29T11:40:21.475Z,6.33
2022-07-29T11:42:55.777Z,5.73
2022-07-29T11:45:43.489Z,6.03
2022-07-29T11:48:28.352Z,6.50
2022-07-29T11:51:01.685Z,5.90
2022-07-29T11:53:33.307Z,5.40
2022-07-29T11:56:50.807Z,6.80
2022-07-29T12:00:01.619Z,6.80
2022-07-29T12:02:48.499Z,6.07
2022-07-29T12:05:22.303Z,6.40
2022-07-29T12:08:31.641Z,6.73
2022-07-29T12:11:05.189Z,6.10
2022-07-29T12:13:50.646Z,6.38
2022-07-29T12:16:29.638Z,6.30
2022-07-29T12:19:03.817Z,6.30
2022-07-29T12:25:36.978Z,6.30
2022-07-29T12:28:09.485Z,6.77
2022-07-29T12:30:46.361Z,6.20
2022-07-29T12:33:24.720Z,6.30
2022-07-29T12:36:17.428Z,6.87
2022-07-29T12:39:14.113Z,8.03
2022-07-29T12:41:53.823Z,7.40
2022-07-29T12:44:51.522Z,6.87
2022-07-29T12:47:24.177Z,7.60
2022-07-29T12:50:12.342Z,6.63
2022-07-29T12:52:41.527Z,7.27
2022-07-29T12:55:11.751Z,6.60
2022-07-29T12:57:49.133Z,6.50
2022-07-29T13:00:19.124Z,6.30
2022-07-29T13:02:58.255Z,6.40
2022-07-29T13:05:49.202Z,6.60
2022-07-29T13:08:22.776Z,7.00
2022-07-29T13:10:52.460Z,6.97
2022-07-29T13:13:21.406Z,7.23
2022-07-29T13:16:09.645Z,6.63
2022-07-29T13:18:39.012Z,6.73
2022-07-29T13:21:16.683Z,6.60
2022-07-29T13:23:52.631Z,6.10
2022-07-29T13:26:21.980Z,6.30
2022-07-29T13:28:55.964Z,5.70
2022-07-29T13:31:32.124Z,6.33
2022-07-29T13:34:01.244Z,6.20
2022-07-29T13:36:32.581Z,6.57
2022-07-29T13:39:05.957Z,6.87
2022-07-29T13:41:39.855Z,6.17
2022-07-29T13:45:04.137Z,6.90
2022-07-29T13:47:58.978Z,7.10
2022-07-29T13:50:31.101Z,7.03
2022-07-29T13:54:09.004Z,6.90
2022-07-29T13:57:34.235Z,7.60
2022-07-29T14:01:12.916Z,6.67
2022-07-29T14:04:21.076Z,7.27
2022-07-29T14:06:58.583Z,7.03
2022-07-29T14:09:41.385Z,6.87
2022-07-29T14:12:33.288Z,7.20
2022-07-29T14:15:02.927Z,7.10
2022-07-29T14:17:37.803Z,6.60
2022-07-29T14:23:34.994Z,6.83
2022-07-29T14:26:24.713Z,8.03
2022-07-29T14:29:08.951Z,8.47
2022-07-29T14:31:39.651Z,6.53
2022-07-29T14:34:15.342Z,8.83
2022-07-29T14:36:44.728Z,6.70
2022-07-29T14:39:17.891Z,6.80
2022-07-29T14:41:51.350Z,6.83
2022-07-29T14:44:20.484Z,7.23
2022-07-29T14:46:50.678Z,6.90
2022-07-29T14:49:23.907Z,6.93
2022-07-29T14:51:55.640Z,6.97
2022-07-29T14:54:24.859Z,7.70
2022-07-29T14:56:58.519Z,6.87
2022-07-29T14:59:39.217Z,6.67
2022-07-29T15:02:45.793Z,6.83
2022-07-29T15:05:17.855Z,6.80
2022-07-29T15:07:55.756Z,7.90
2022-07-29T15:10:52.629Z,7.23
2022-07-29T15:13:31.218Z,8.40
2022-07-29T15:16:00.560Z,7.23
2022-07-29T15:18:29.862Z,7.50
2022-07-29T15:21:05.287Z,7.03
2022-07-29T15:23:34.576Z,6.33
2022-07-29T15:26:07.139Z,7.20
2022-07-29T15:28:39.773Z,5.87
2022-07-29T15:31:10.344Z,7.30
2022-07-29T15:33:39.584Z,6.60
2022-07-29T15:36:09.085Z,6.50
2022-07-29T15:38:41.822Z,6.53
2022-07-29T15:41:18.758Z,6.60
2022-07-29T15:43:54.195Z,6.63
2022-07-29T15:46:43.594Z,6.40
2022-07-29T15:49:14.174Z,6.47
2022-07-29T15:51:54.134Z,7.40
2022-07-29T15:54:26.534Z,6.27
2022-07-29T15:56:56.657Z,6.77
2022-07-29T15:59:30.809Z,6.90
2022-07-29T16:02:05.057Z,7.40
2022-07-29T16:04:34.484Z,6.80
2022-07-29T16:07:11.722Z,7.07
2022-07-29T16:09:57.862Z,6.60
2022-07-29T16:12:38.410Z,7.30
2022-07-29T16:18:19.014Z,7.13
2022-07-29T16:24:03.077Z,6.83
2022-07-29T16:26:32.743Z,6.97
2022-07-29T16:32:15.375Z,7.80
2022-07-29T16:34:54.333Z,6.83
2022-07-29T16:37:25.934Z,6.40
2022-07-29T16:40:28.005Z,6.33
2022-07-29T16:43:48.840Z,6.40
2022-07-29T16:46:35.603Z,6.90
2022-07-29T16:49:07.669Z,6.43
2022-07-29T16:51:36.809Z,6.60
2022-07-29T16:54:06.558Z,7.30
2022-07-29T16:56:36.142Z,7.00
2022-07-29T16:59:08.809Z,6.90
2022-07-29T17:01:42.482Z,6.43
2022-07-29T17:04:19.598Z,6.50
2022-07-29T17:06:50.841Z,6.50
2022-07-29T17:09:23.092Z,6.30
2022-07-29T17:12:01.193Z,7.47
2022-07-29T17:14:53.630Z,7.00
2022-07-29T17:17:55.439Z,6.80
2022-07-29T17:20:28.054Z,7.13
2022-07-29T17:25:48.451Z,7.50
2022-07-29T17:28:39.015Z,6.17
2022-07-29T17:31:10.802Z,6.67
2022-07-29T17:33:41.821Z,6.57
2022-07-29T17:36:28.015Z,6.57
2022-07-29T17:39:06.016Z,6.90
2022-07-29T17:41:37.672Z,6.77
2022-07-29T17:44:16.782Z,5.93
2022-07-29T17:47:16.691Z,7.20
2022-07-29T17:49:54.857Z,6.90
2022-07-29T17:52:30.670Z,7.30
2022-07-29T17:55:02.047Z,6.33
2022-07-29T17:58:09.649Z,7.30
2022-07-29T18:01:12.985Z,6.87
2022-07-29T18:04:32.509Z,7.90
2022-07-29T18:07:16.186Z,8.23
2022-07-29T18:10:06.389Z,6.70
2022-07-29T18:12:59.646Z,7.23
2022-07-29T18:16:00.190Z,7.30
2022-07-29T18:18:35.679Z,7.93
2022-07-29T18:21:10.775Z,7.73
2022-07-29T18:23:59.072Z,8.60
2022-07-29T18:26:34.797Z,7.63
2022-07-29T18:29:04.398Z,7.40
2022-07-29T18:31:33.968Z,7.40
2022-07-29T18:34:03.016Z,7.80
2022-07-29T18:36:44.041Z,7.80
2022-07-29T18:39:20.873Z,7.73
2022-07-29T18:41:56.403Z,8.63
2022-07-29T18:44:30.238Z,8.30
2022-07-29T18:46:59.276Z,7.50
2022-07-29T18:49:29.576Z,7.33
2022-07-29T18:52:05.204Z,7.90
2022-07-29T18:54:34.733Z,8.30
2022-07-29T18:57:53.746Z,7.30
2022-07-29T19:00:04.230Z,7.50
2022-07-29T19:02:47.891Z,7.83
2022-07-29T19:05:20.037Z,8.17
2022-07-29T19:07:48.850Z,8.00
2022-07-29T19:10:20.801Z,7.73
2022-07-29T19:12:51.231Z,9.07
2022-07-29T19:15:20.702Z,8.17
2022-07-29T19:17:50.550Z,8.10
2022-07-29T19:20:19.989Z,8.60
2022-07-29T19:22:49.666Z,7.90
2022-07-29T19:25:19.779Z,8.00
2022-07-29T19:27:50.416Z,7.90
2022-07-29T19:30:21.147Z,8.20
2022-07-29T19:32:50.345Z,7.30
2022-07-29T19:35:28.214Z,8.00
2022-07-29T19:38:12.790Z,8.10
2022-07-29T19:40:44.582Z,7.20
2022-07-29T19:43:50.753Z,8.57
2022-07-29T19:50:04.148Z,7.33
2022-07-29T19:52:48.826Z,8.57
2022-07-29T19:55:20.196Z,9.20
2022-07-29T19:57:52.234Z,8.43
2022-07-29T20:00:34.343Z,8.03
2022-07-29T20:03:11.221Z,8.80
2022-07-29T20:05:47.684Z,9.23
2022-07-29T20:08:22.616Z,9.53
2022-07-29T20:11:00.224Z,9.00
2022-07-29T20:13:31.449Z,9.23
2022-07-29T20:16:02.139Z,10.67
2022-07-29T20:18:37.117Z,10.40
2022-07-29T20:21:06.376Z,9.87
2022-07-29T20:23:37.410Z,10.83
2022-07-29T20:26:09.284Z,10.40
2022-07-29T20:28:43.519Z,8.83
2022-07-29T20:31:29.951Z,8.13
2022-07-29T20:33:59.593Z,9.73
2022-07-29T20:36:28.655Z,7.43
2022-07-29T20:39:00.116Z,7.40
2022-07-29T20:41:31.923Z,8.83
2022-07-29T20:44:08.090Z,7.70
2022-07-29T20:46:46.812Z,7.80
2022-07-29T20:49:16.258Z,8.20
2022-07-29T20:52:09.137Z,7.70
2022-07-29T20:54:41.464Z,9.77
2022-07-29T20:57:12.409Z,8.87
2022-07-29T20:59:45.779Z,9.77
2022-07-29T21:02:16.423Z,9.07
2022-07-29T21:04:50.867Z,8.97
2022-07-29T21:07:28.736Z,9.00
2022-07-29T21:09:57.789Z,8.37
2022-07-29T21:12:44.707Z,9.13
2022-07-29T21:15:17.098Z,8.73
2022-07-29T21:17:59.482Z,8.93
2022-07-29T21:20:34.077Z,9.13
2022-07-29T21:23:05.818Z,9.20
2022-07-29T21:25:36.213Z,9.30
2022-07-29T21:28:23.425Z,8.93
2022-07-29T21:30:52.734Z,9.23
2022-07-29T21:34:17.137Z,8.60
2022-07-29T21:39:48.432Z,9.23
2022-07-29T21:42:20.770Z,9.67
2022-07-29T21:45:02.337Z,9.33
2022-07-29T21:47:34.405Z,8.50
2022-07-29T21:50:11.201Z,8.77
2022-07-29T21:52:43.464Z,7.30
2022-07-29T21:55:36.397Z,7.53
2022-07-29T21:58:36.172Z,8.47
2022-07-29T22:01:08.118Z,7.43
2022-07-29T22:04:25.416Z,7.90
2022-07-29T22:07:56.113Z,7.67
2022-07-29T22:10:44.125Z,6.97
2022-07-29T22:13:32.800Z,6.70
2022-07-29T22:16:15.137Z,7.17
2022-07-29T22:18:56.198Z,6.40
2022-07-29T22:21:38.422Z,6.97
2022-07-29T22:24:23.237Z,7.30
2022-07-29T22:27:15.473Z,6.67
2022-07-29T22:29:49.157Z,6.10
2022-07-29T22:32:28.298Z,6.33
2022-07-29T22:35:07.991Z,6.37
2022-07-29T22:37:42.634Z,5.77
2022-07-29T22:40:45.125Z,6.40
2022-07-29T22:43:26.767Z,6.00
2022-07-29T22:45:55.910Z,6.27
2022-07-29T22:48:29.818Z,5.57
2022-07-29T22:51:07.378Z,6.37
2022-07-29T22:53:44.098Z,5.33
2022-07-29T22:56:17.769Z,4.80
2022-07-29T22:58:52.714Z,5.40
2022-07-29T23:01:35.792Z,5.00
2022-07-29T23:04:08.919Z,4.60
2022-07-29T23:06:43.331Z,5.80
2022-07-29T23:09:32.827Z,5.07
2022-07-29T23:12:09.938Z,4.67
2022-07-29T23:14:42.360Z,4.40
2022-07-29T23:17:13.240Z,5.50
2022-07-29T23:19:57.801Z,4.40
2022-07-29T23:22:27.042Z,4.60
2022-07-29T23:24:58.975Z,4.97
2022-07-29T23:27:32.670Z,4.83
2022-07-29T23:30:08.290Z,4.47
2022-07-29T23:32:37.702Z,5.40
2022-07-29T23:35:23.672Z,4.37
2022-07-29T23:37:53.212Z,4.70
2022-07-29T23:40:27.445Z,5.00
2022-07-29T23:42:59.197Z,5.33
2022-07-29T23:45:42.559Z,5.47
2022-07-29T23:48:14.650Z,4.97
2022-07-29T23:50:47.078Z,5.30
2022-07-29T23:53:17.736Z,5.30
2022-07-29T23:55:47.295Z,4.33
2022-07-29T23:58:19.990Z,4.80
